createdAt,value
2018-07-28T00:00:16.898Z,54.49
2018-07-28T00:01:16.861Z,54.29
2018-07-28T00:02:16.830Z,54.39
2018-07-28T00:03:16.830Z,54.88
2018-07-28T00:04:16.753Z,54.88
2018-07-28T00:05:16.751Z,54.68
2018-07-28T00:06:16.687Z,55.14
2018-07-28T00:07:16.659Z,54.56
2018-07-28T00:08:16.627Z,55.24
2018-07-28T00:09:16.613Z,54.46
2018-07-28T00:10:16.558Z,55.43
2018-07-28T00:11:16.517Z,56.01
2018-07-28T00:12:16.506Z,55.73
2018-07-28T00:13:16.444Z,56.21
2018-07-28T00:14:16.448Z,55.63
2018-07-28T00:15:16.388Z,55.43
2018-07-28T00:16:16.353Z,56.11
2018-07-28T00:17:16.311Z,56.01
2018-07-28T00:18:16.276Z,56.40
2018-07-28T00:19:16.284Z,56.40
2018-07-28T00:20:16.216Z,56.30
2018-07-28T00:21:16.183Z,56.50
2018-07-28T00:22:16.150Z,56.30
2018-07-28T00:23:16.107Z,56.89
2018-07-28T00:24:16.074Z,56.30
2018-07-28T00:25:16.066Z,55.92
2018-07-28T00:26:16.005Z,56.89
2018-07-28T00:27:15.978Z,56.79
2018-07-28T00:28:15.945Z,56.57
2018-07-28T00:29:15.909Z,56.21
2018-07-28T00:30:15.904Z,56.40
2018-07-28T00:31:15.836Z,56.30
2018-07-28T00:32:15.802Z,56.01
2018-07-28T00:33:15.778Z,56.11
2018-07-28T00:34:15.743Z,56.50
2018-07-28T00:35:15.701Z,56.89
2018-07-28T00:36:15.689Z,56.70
2018-07-28T00:37:15.631Z,56.50
2018-07-28T00:38:15.606Z,56.40
2018-07-28T00:39:15.570Z,56.60
2018-07-28T00:40:15.538Z,56.40
2018-07-28T00:41:15.525Z,57.08
2018-07-28T00:42:15.470Z,56.50
2018-07-28T00:43:15.429Z,57.18
2018-07-28T00:44:15.392Z,57.54
2018-07-28T00:45:15.359Z,57.37
2018-07-28T00:46:15.386Z,57.28
2018-07-28T00:47:15.298Z,57.34
2018-07-28T00:48:15.264Z,57.47
2018-07-28T00:49:15.221Z,56.89
2018-07-28T00:50:15.189Z,57.37
2018-07-28T00:51:15.163Z,57.67
2018-07-28T00:52:15.150Z,57.34
2018-07-28T00:53:15.094Z,58.22
2018-07-28T00:54:15.073Z,57.83
2018-07-28T00:55:15.021Z,58.31
2018-07-28T00:56:14.984Z,58.22
2018-07-28T00:57:14.970Z,58.03
2018-07-28T00:58:14.914Z,58.31
2018-07-28T00:59:14.889Z,58.12
2018-07-28T01:00:14.856Z,58.12
2018-07-28T01:01:14.825Z,58.12
2018-07-28T01:02:14.809Z,58.22
2018-07-28T01:03:14.748Z,58.61
2018-07-28T01:04:14.709Z,58.51
2018-07-28T01:05:14.682Z,58.41
2018-07-28T01:06:14.648Z,59.00
2018-07-28T01:07:14.610Z,59.74
2018-07-28T01:08:14.601Z,59.26
2018-07-28T01:09:14.542Z,60.52
2018-07-28T01:10:14.504Z,61.39
2018-07-28T01:11:14.480Z,60.68
2018-07-28T01:12:14.444Z,61.65
2018-07-28T01:13:14.432Z,61.17
2018-07-28T01:14:14.377Z,61.07
2018-07-28T01:15:14.340Z,61.82
2018-07-28T01:16:14.300Z,62.04
2018-07-28T01:17:14.267Z,61.85
2018-07-28T01:18:14.256Z,61.82
2018-07-28T01:19:14.207Z,61.14
2018-07-28T01:20:14.170Z,62.49
2018-07-28T01:21:14.127Z,62.01
2018-07-28T01:22:14.095Z,62.10
2018-07-28T01:23:14.090Z,62.30
2018-07-28T01:24:14.030Z,62.20
2018-07-28T01:25:14.003Z,62.10
2018-07-28T01:26:13.967Z,62.20
2018-07-28T01:27:13.922Z,62.40
2018-07-28T01:28:13.908Z,62.30
2018-07-28T01:29:13.854Z,63.04
2018-07-28T01:30:13.820Z,63.46
2018-07-28T01:31:13.788Z,64.11
2018-07-28T01:32:13.759Z,63.53
2018-07-28T01:33:13.766Z,63.72
2018-07-28T01:34:13.688Z,64.69
2018-07-28T01:35:13.653Z,64.11
2018-07-28T01:36:13.614Z,64.50
2018-07-28T01:37:13.587Z,65.08
2018-07-28T01:38:13.572Z,65.17
2018-07-28T01:39:13.512Z,67.11
2018-07-28T01:40:13.475Z,66.69
2018-07-28T01:41:13.444Z,67.08
2018-07-28T01:42:13.406Z,67.37
2018-07-28T01:43:13.404Z,67.85
2018-07-28T01:44:13.346Z,67.05
2018-07-28T01:45:13.310Z,67.91
2018-07-28T01:46:13.276Z,66.95
2018-07-28T01:47:13.233Z,66.66
2018-07-28T01:48:13.202Z,67.24
2018-07-28T01:49:13.185Z,66.95
2018-07-28T01:50:13.131Z,67.43
2018-07-28T01:51:13.099Z,68.98
2018-07-28T01:52:13.067Z,70.14
2018-07-28T01:53:13.025Z,70.62
2018-07-28T01:54:13.009Z,69.82
2018-07-28T01:55:12.967Z,70.50
2018-07-28T01:56:12.929Z,69.92
2018-07-28T01:57:12.895Z,68.75
2018-07-28T01:58:12.861Z,68.27
2018-07-28T01:59:12.842Z,67.88
2018-07-28T02:00:12.784Z,68.17
2018-07-28T02:01:12.748Z,67.91
2018-07-28T02:02:12.712Z,66.95
2018-07-28T02:03:12.686Z,66.95
2018-07-28T02:04:12.651Z,67.33
2018-07-28T02:05:12.635Z,67.53
2018-07-28T02:06:12.582Z,66.85
2018-07-28T02:07:12.549Z,66.66
2018-07-28T02:08:12.508Z,67.91
2018-07-28T02:09:12.485Z,67.91
2018-07-28T02:10:12.464Z,68.21
2018-07-28T02:11:12.402Z,67.33
2018-07-28T02:12:12.365Z,67.91
2018-07-28T02:13:12.330Z,66.75
2018-07-28T02:14:12.294Z,67.72
2018-07-28T02:15:12.294Z,67.72
2018-07-28T02:16:12.236Z,67.24
2018-07-28T02:17:12.196Z,67.33
2018-07-28T02:18:12.162Z,67.63
2018-07-28T02:19:12.123Z,67.91
2018-07-28T02:20:12.088Z,67.72
2018-07-28T02:21:12.072Z,67.33
2018-07-28T02:22:12.018Z,67.91
2018-07-28T02:23:11.993Z,67.72
2018-07-28T02:24:11.955Z,68.49
2018-07-28T02:25:11.912Z,68.37
2018-07-28T02:26:11.897Z,68.30
2018-07-28T02:27:11.850Z,68.01
2018-07-28T02:28:11.817Z,69.04
2018-07-28T02:29:11.780Z,69.43
2018-07-28T02:30:11.744Z,68.95
2018-07-28T02:31:11.729Z,71.84
2018-07-28T02:32:11.669Z,72.52
2018-07-28T02:33:11.636Z,72.52
2018-07-28T02:34:11.600Z,73.16
2018-07-28T02:35:11.585Z,72.78
2018-07-28T02:36:11.563Z,72.68
2018-07-28T02:37:11.507Z,74.23
2018-07-28T02:38:11.465Z,75.10
2018-07-28T02:39:11.425Z,74.90
2018-07-28T02:40:11.395Z,75.84
2018-07-28T02:41:11.362Z,73.22
2018-07-28T02:42:11.347Z,74.96
2018-07-28T02:43:11.285Z,74.48
2018-07-28T02:44:11.250Z,73.71
2018-07-28T02:45:11.212Z,73.03
2018-07-28T02:46:11.179Z,73.22
2018-07-28T02:47:11.173Z,72.55
2018-07-28T02:48:11.117Z,72.74
2018-07-28T02:49:11.081Z,72.55
2018-07-28T02:50:11.043Z,73.42
2018-07-28T02:51:11.007Z,75.26
2018-07-28T02:52:10.993Z,73.42
2018-07-28T02:53:10.934Z,75.74
2018-07-28T02:54:10.899Z,78.73
2018-07-28T02:55:10.877Z,77.96
2018-07-28T02:56:10.838Z,76.22
2018-07-28T02:57:10.795Z,75.16
2018-07-28T02:58:10.780Z,74.81
2018-07-28T02:59:10.735Z,74.13
2018-07-28T03:00:10.721Z,73.49
2018-07-28T03:01:10.660Z,73.30
2018-07-28T03:02:10.624Z,72.24
2018-07-28T03:03:10.603Z,71.17
2018-07-28T03:04:10.547Z,72.24
2018-07-28T03:05:10.512Z,71.30
2018-07-28T03:06:10.476Z,71.01
2018-07-28T03:07:10.455Z,71.40
2018-07-28T03:08:10.437Z,70.86
2018-07-28T03:09:10.375Z,71.14
2018-07-28T03:10:10.346Z,69.89
2018-07-28T03:11:10.305Z,71.14
2018-07-28T03:12:10.275Z,71.34
2018-07-28T03:13:10.264Z,70.76
2018-07-28T03:14:10.201Z,71.62
2018-07-28T03:15:10.162Z,72.69
2018-07-28T03:16:10.135Z,72.79
2018-07-28T03:17:10.090Z,72.46
2018-07-28T03:18:10.054Z,72.75
2018-07-28T03:19:10.056Z,72.89
2018-07-28T03:20:09.996Z,72.36
2018-07-28T03:21:09.966Z,73.33
2018-07-28T03:22:09.923Z,73.72
2018-07-28T03:23:09.896Z,73.63
2018-07-28T03:24:09.868Z,74.21
2018-07-28T03:25:09.811Z,74.01
2018-07-28T03:26:09.778Z,74.30
2018-07-28T03:27:09.744Z,73.91
2018-07-28T03:28:09.713Z,74.01
2018-07-28T03:29:09.697Z,74.21
2018-07-28T03:30:09.635Z,74.40
2018-07-28T03:31:09.608Z,74.79
2018-07-28T03:32:09.572Z,75.65
2018-07-28T03:33:09.537Z,75.17
2018-07-28T03:34:09.508Z,75.75
2018-07-28T03:35:09.489Z,75.52
2018-07-28T03:36:09.425Z,75.71
2018-07-28T03:37:09.389Z,76.29
2018-07-28T03:38:09.359Z,76.49
2018-07-28T03:39:09.333Z,77.26
2018-07-28T03:40:09.317Z,76.59
2018-07-28T03:41:09.255Z,76.97
2018-07-28T03:42:09.221Z,77.36
2018-07-28T03:43:09.183Z,77.36
2018-07-28T03:44:09.143Z,77.07
2018-07-28T03:45:09.142Z,78.23
2018-07-28T03:46:09.083Z,77.75
2018-07-28T03:47:09.041Z,77.90
2018-07-28T03:48:09.005Z,78.77
2018-07-28T03:49:08.970Z,79.06
2018-07-28T03:50:08.938Z,79.25
2018-07-28T03:51:18.550Z,78.77
2018-07-28T03:52:08.874Z,78.67
2018-07-28T03:53:08.826Z,79.74
2018-07-28T03:54:08.791Z,79.54
2018-07-28T03:55:08.762Z,80.61
2018-07-28T03:56:08.742Z,80.90
2018-07-28T03:57:08.695Z,80.90
2018-07-28T03:58:08.657Z,81.29
2018-07-28T03:59:08.618Z,81.48
2018-07-28T04:00:08.584Z,81.77
2018-07-28T04:01:08.573Z,81.87
2018-07-28T04:02:08.518Z,82.02
2018-07-28T04:03:08.485Z,82.25
2018-07-28T04:04:08.502Z,82.50
2018-07-28T04:05:08.404Z,82.89
2018-07-28T04:06:08.395Z,83.08
2018-07-28T04:07:08.335Z,83.85
2018-07-28T04:08:08.298Z,84.82
2018-07-28T04:09:08.273Z,84.43
2018-07-28T04:10:08.234Z,84.91
2018-07-28T04:11:08.201Z,84.91
2018-07-28T04:12:08.192Z,85.69
2018-07-28T04:13:08.125Z,85.49
2018-07-28T04:14:08.089Z,85.30
2018-07-28T04:15:08.062Z,85.78
2018-07-28T04:16:08.028Z,86.07
2018-07-28T04:17:08.003Z,86.36
2018-07-28T04:18:07.950Z,86.85
2018-07-28T04:19:07.912Z,87.33
2018-07-28T04:20:07.877Z,87.23
2018-07-28T04:21:07.849Z,87.52
2018-07-28T04:22:07.839Z,87.43
2018-07-28T04:23:07.784Z,87.23
2018-07-28T04:24:07.744Z,86.75
2018-07-28T04:25:07.713Z,87.33
2018-07-28T04:26:07.665Z,87.43
2018-07-28T04:27:07.631Z,88.10
2018-07-28T04:28:07.623Z,87.43
2018-07-28T04:29:07.570Z,87.81
2018-07-28T04:30:17.573Z,87.13
2018-07-28T04:31:07.510Z,87.52
2018-07-28T04:32:07.464Z,87.23
2018-07-28T04:33:07.449Z,87.62
2018-07-28T04:34:07.390Z,87.62
2018-07-28T04:35:07.347Z,88.01
2018-07-28T04:36:07.348Z,87.04
2018-07-28T04:37:07.333Z,88.39
2018-07-28T04:38:07.263Z,88.97
2018-07-28T04:39:07.214Z,88.10
2018-07-28T04:40:07.179Z,88.49
2018-07-28T04:41:07.143Z,89.84
2018-07-28T04:42:07.108Z,90.91
2018-07-28T04:43:07.091Z,89.55
2018-07-28T04:44:07.146Z,89.65
2018-07-28T04:45:07.005Z,89.26
2018-07-28T04:46:06.971Z,91.29
2018-07-28T04:47:06.926Z,90.71
2018-07-28T04:48:06.890Z,89.98
2018-07-28T04:49:06.875Z,89.31
2018-07-28T04:50:17.124Z,89.65
2018-07-28T04:51:06.799Z,89.84
2018-07-28T04:52:06.757Z,90.56
2018-07-28T04:53:06.741Z,90.85
2018-07-28T04:54:06.681Z,90.66
2018-07-28T04:55:06.646Z,90.95
2018-07-28T04:56:06.629Z,91.24
2018-07-28T04:57:06.617Z,89.98
2018-07-28T04:58:06.572Z,88.57
2018-07-28T04:59:06.505Z,84.79
2018-07-28T05:00:06.472Z,80.90
2018-07-28T05:01:06.443Z,77.98
2018-07-28T05:02:06.405Z,75.88
2018-07-28T05:03:06.398Z,74.30
2018-07-28T05:04:06.338Z,73.04
2018-07-28T05:05:06.293Z,71.52
2018-07-28T05:06:06.262Z,70.97
2018-07-28T05:07:06.226Z,69.35
2018-07-28T05:08:06.220Z,67.86
2018-07-28T05:09:06.168Z,66.69
2018-07-28T05:10:16.167Z,66.11
2018-07-28T05:11:06.086Z,64.81
2018-07-28T05:12:06.055Z,64.13
2018-07-28T05:13:06.046Z,65.04
2018-07-28T05:14:05.992Z,64.62
2018-07-28T05:15:05.949Z,65.04
2018-07-28T05:16:06.069Z,65.04
2018-07-28T05:17:05.884Z,66.24
2018-07-28T05:18:05.873Z,65.11
2018-07-28T05:19:05.828Z,63.12
2018-07-28T05:20:05.795Z,61.00
2018-07-28T05:21:05.762Z,61.30
2018-07-28T05:22:05.726Z,61.43
2018-07-28T05:23:05.708Z,61.23
2018-07-28T05:24:05.653Z,60.86
2018-07-28T05:25:05.619Z,60.57
2018-07-28T05:26:05.591Z,61.62
2018-07-28T05:27:05.585Z,61.25
2018-07-28T05:28:05.527Z,60.28
2018-07-28T05:29:16.712Z,61.16
2018-07-28T05:30:05.466Z,59.01
2018-07-28T05:31:05.432Z,58.52
2018-07-28T05:32:05.424Z,59.25
2018-07-28T05:33:05.364Z,61.08
2018-07-28T05:34:05.330Z,64.45
2018-07-28T05:35:05.299Z,66.63
2018-07-28T05:36:05.270Z,69.29
2018-07-28T05:37:05.292Z,71.29
2018-07-28T05:38:05.212Z,73.14
2018-07-28T05:39:05.264Z,72.71
2018-07-28T05:40:05.145Z,73.00
2018-07-28T05:41:05.149Z,73.74
2018-07-28T05:42:05.097Z,74.10
2018-07-28T05:43:05.049Z,76.19
2018-07-28T05:44:05.015Z,78.91
2018-07-28T05:45:04.978Z,81.04
2018-07-28T05:46:04.950Z,84.30
2018-07-28T05:47:04.938Z,82.94
2018-07-28T05:48:04.880Z,80.77
2018-07-28T05:49:04.853Z,79.99
2018-07-28T05:50:04.877Z,80.44
2018-07-28T05:51:04.789Z,81.02
2018-07-28T05:52:04.779Z,80.73
2018-07-28T05:53:04.715Z,81.12
2018-07-28T05:54:04.704Z,82.08
2018-07-28T05:55:04.651Z,81.17
2018-07-28T05:56:04.614Z,81.95
2018-07-28T05:57:04.609Z,81.37
2018-07-28T05:58:04.556Z,83.88
2018-07-28T05:59:04.514Z,83.98
2018-07-28T06:00:04.482Z,84.94
2018-07-28T06:01:04.456Z,85.14
2018-07-28T06:02:04.445Z,85.14
2018-07-28T06:03:04.386Z,85.62
2018-07-28T06:04:04.356Z,85.87
2018-07-28T06:05:04.310Z,87.17
2018-07-28T06:06:04.276Z,86.65
2018-07-28T06:07:14.286Z,86.65
2018-07-28T06:08:04.215Z,87.41
2018-07-28T06:09:04.182Z,86.83
2018-07-28T06:10:04.150Z,88.48
2018-07-28T06:11:04.128Z,86.93
2018-07-28T06:12:04.077Z,88.39
2018-07-28T06:13:04.047Z,89.64
2018-07-28T06:14:04.048Z,90.61
2018-07-28T06:15:03.974Z,90.41
2018-07-28T06:16:03.956Z,89.93
2018-07-28T06:17:03.902Z,88.92
2018-07-28T06:18:03.866Z,90.75
2018-07-28T06:19:03.839Z,93.08
2018-07-28T06:20:03.805Z,95.01
2018-07-28T06:21:03.791Z,94.29
2018-07-28T06:22:03.768Z,96.03
2018-07-28T06:23:03.693Z,99.99
2018-07-28T06:24:03.660Z,99.99
2018-07-28T06:25:03.624Z,99.99
2018-07-28T06:26:03.687Z,99.99
2018-07-28T06:27:03.563Z,99.99
2018-07-28T06:28:03.528Z,99.99
2018-07-28T06:29:03.489Z,99.99
2018-07-28T06:30:03.457Z,99.99
2018-07-28T06:31:03.446Z,99.99
2018-07-28T06:32:03.391Z,99.99
2018-07-28T06:33:03.358Z,99.99
2018-07-28T06:34:03.318Z,99.99
2018-07-28T06:35:03.277Z,99.99
2018-07-28T06:36:03.263Z,99.99
2018-07-28T06:37:03.213Z,99.99
2018-07-28T06:38:03.169Z,99.99
2018-07-28T06:39:03.141Z,99.99
2018-07-28T06:40:03.110Z,99.99
2018-07-28T06:41:03.094Z,99.99
2018-07-28T06:42:03.035Z,99.99
2018-07-28T06:43:02.998Z,99.99
2018-07-28T06:44:02.958Z,99.99
2018-07-28T06:45:02.930Z,99.99
2018-07-28T06:46:02.914Z,99.99
2018-07-28T06:47:02.854Z,99.99
2018-07-28T06:48:02.818Z,99.99
2018-07-28T06:49:02.781Z,99.99
2018-07-28T06:50:02.748Z,99.99
2018-07-28T06:51:02.736Z,99.99
2018-07-28T06:52:02.679Z,99.99
2018-07-28T06:53:02.643Z,99.99
2018-07-28T06:54:02.614Z,99.99
2018-07-28T06:55:02.588Z,99.99
2018-07-28T06:56:02.529Z,99.99
2018-07-28T06:57:02.499Z,99.99
2018-07-28T06:58:02.461Z,99.99
2018-07-28T06:59:02.437Z,99.99
2018-07-28T07:00:02.421Z,99.99
2018-07-28T07:01:02.350Z,99.99
2018-07-28T07:02:02.322Z,99.99
2018-07-28T07:03:02.291Z,99.99
2018-07-28T07:04:02.259Z,99.99
2018-07-28T07:05:02.266Z,99.99
2018-07-28T07:06:02.181Z,99.99
2018-07-28T07:07:02.150Z,99.99
2018-07-28T07:08:02.136Z,99.99
2018-07-28T07:09:02.071Z,99.99
2018-07-28T07:10:02.054Z,99.99
2018-07-28T07:11:02.005Z,99.99
2018-07-28T07:12:01.972Z,99.99
2018-07-28T07:13:01.934Z,99.99
2018-07-28T07:14:01.907Z,99.99
2018-07-28T07:15:01.885Z,99.99
2018-07-28T07:16:01.836Z,99.99
2018-07-28T07:17:01.811Z,99.99
2018-07-28T07:18:01.764Z,99.99
2018-07-28T07:19:01.721Z,99.99
2018-07-28T07:20:01.708Z,99.99
2018-07-28T07:21:01.658Z,99.99
2018-07-28T07:22:01.614Z,99.99
2018-07-28T07:23:01.587Z,99.99
2018-07-28T07:24:01.554Z,99.99
2018-07-28T07:25:01.549Z,99.99
2018-07-28T07:26:01.487Z,99.99
2018-07-28T07:27:01.442Z,99.99
2018-07-28T07:28:01.408Z,99.99
2018-07-28T07:29:01.374Z,99.99
2018-07-28T07:30:01.365Z,99.99
2018-07-28T07:31:01.316Z,99.99
2018-07-28T07:32:01.279Z,99.99
2018-07-28T07:33:01.241Z,99.99
2018-07-28T07:34:01.205Z,99.99
2018-07-28T07:35:01.200Z,99.99
2018-07-28T07:36:01.151Z,99.99
2018-07-28T07:37:01.112Z,98.88
2018-07-28T07:38:01.085Z,99.12
2018-07-28T07:39:01.057Z,99.51
2018-07-28T07:40:01.003Z,97.57
2018-07-28T07:41:00.965Z,97.13
2018-07-28T07:42:00.936Z,97.23
2018-07-28T07:43:00.902Z,99.99
2018-07-28T07:44:00.894Z,99.99
2018-07-28T07:45:00.838Z,99.55
2018-07-28T07:46:00.805Z,98.78
2018-07-28T07:47:00.765Z,98.97
2018-07-28T07:48:00.732Z,99.99
2018-07-28T07:49:00.724Z,99.99
2018-07-28T07:50:00.673Z,99.99
2018-07-28T07:51:00.629Z,99.99
2018-07-28T07:52:00.593Z,97.08
2018-07-28T07:53:00.559Z,99.02
2018-07-28T07:54:00.578Z,97.86
2018-07-28T07:55:00.498Z,99.17
2018-07-28T07:56:00.465Z,96.45
2018-07-28T07:57:00.434Z,93.26
2018-07-28T07:58:00.399Z,91.71
2018-07-28T07:59:00.380Z,92.49
2018-07-28T08:00:00.326Z,92.72
2018-07-28T08:01:00.289Z,92.05
2018-07-28T08:02:00.256Z,90.69
2018-07-28T08:03:00.236Z,90.59
2018-07-28T08:04:00.218Z,91.08
2018-07-28T08:05:00.159Z,91.85
2018-07-28T08:06:00.127Z,91.66
2018-07-28T08:07:00.101Z,90.01
2018-07-28T08:08:00.069Z,90.11
2018-07-28T08:09:00.052Z,90.59
2018-07-28T08:09:59.996Z,88.65
2018-07-28T08:10:59.957Z,88.51
2018-07-28T08:11:59.925Z,88.99
2018-07-28T08:12:59.891Z,85.64
2018-07-28T08:13:59.879Z,87.34
2018-07-28T08:14:59.831Z,87.05
2018-07-28T08:15:59.798Z,87.34
2018-07-28T08:16:59.764Z,87.34
2018-07-28T08:17:59.732Z,87.63
2018-07-28T08:18:59.716Z,86.18
2018-07-28T08:19:59.661Z,86.57
2018-07-28T08:20:59.647Z,88.56
2018-07-28T08:21:59.598Z,88.21
2018-07-28T08:22:59.584Z,87.34
2018-07-28T08:23:59.529Z,88.31
2018-07-28T08:24:59.493Z,88.70
2018-07-28T08:25:59.463Z,88.21
2018-07-28T08:26:59.439Z,87.24
2018-07-28T08:27:59.430Z,88.41
2018-07-28T08:28:59.372Z,87.73
2018-07-28T08:29:59.341Z,87.63
2018-07-28T08:30:59.299Z,88.85
2018-07-28T08:31:59.267Z,88.37
2018-07-28T08:32:59.231Z,88.56
2018-07-28T08:33:59.229Z,88.85
2018-07-28T08:34:59.179Z,89.14
2018-07-28T08:35:59.141Z,91.17
2018-07-28T08:36:59.102Z,90.55
2018-07-28T08:37:59.073Z,91.13
2018-07-28T08:38:59.043Z,91.03
2018-07-28T08:39:59.067Z,93.07
2018-07-28T08:40:58.977Z,91.52
2018-07-28T08:41:58.943Z,90.84
2018-07-28T08:42:58.906Z,92.68
2018-07-28T08:43:58.869Z,92.00
2018-07-28T08:44:58.859Z,92.68
2018-07-28T08:45:58.803Z,91.38
2018-07-28T08:46:58.781Z,91.03
2018-07-28T08:47:58.741Z,91.96
2018-07-28T08:48:58.788Z,91.38
2018-07-28T08:49:58.699Z,90.80
2018-07-28T08:50:58.637Z,91.66
2018-07-28T08:51:58.605Z,90.70
2018-07-28T08:52:58.582Z,90.99
2018-07-28T08:53:58.542Z,90.31
2018-07-28T08:54:58.532Z,89.58
2018-07-28T08:55:58.470Z,90.26
2018-07-28T08:56:58.437Z,90.45
2018-07-28T08:57:58.401Z,89.58
2018-07-28T08:58:58.377Z,89.68
2018-07-28T08:59:58.342Z,88.56
2018-07-28T09:00:58.332Z,88.85
2018-07-28T09:01:58.274Z,88.56
2018-07-28T09:02:58.235Z,87.59
2018-07-28T09:03:58.203Z,86.91
2018-07-28T09:04:58.172Z,86.33
2018-07-28T09:05:58.201Z,85.99
2018-07-28T09:06:58.109Z,83.27
2018-07-28T09:07:58.075Z,83.85
2018-07-28T09:08:58.038Z,83.95
2018-07-28T09:09:58.003Z,82.73
2018-07-28T09:10:58.001Z,83.89
2018-07-28T09:11:57.941Z,83.60
2018-07-28T09:12:57.909Z,82.82
2018-07-28T09:13:57.874Z,83.12
2018-07-28T09:14:57.836Z,82.63
2018-07-28T09:15:57.802Z,82.48
2018-07-28T09:16:57.797Z,82.28
2018-07-28T09:17:57.743Z,81.80
2018-07-28T09:18:57.712Z,81.12
2018-07-28T09:19:57.678Z,81.80
2018-07-28T09:20:57.644Z,82.67
2018-07-28T09:21:57.632Z,81.02
2018-07-28T09:22:57.578Z,81.18
2018-07-28T09:23:57.540Z,81.21
2018-07-28T09:24:57.515Z,81.02
2018-07-28T09:25:57.484Z,80.25
2018-07-28T09:26:57.479Z,81.90
2018-07-28T09:27:57.412Z,79.66
2018-07-28T09:28:57.376Z,79.51
2018-07-28T09:29:57.343Z,80.96
2018-07-28T09:30:57.319Z,79.06
2018-07-28T09:31:57.311Z,77.80
2018-07-28T09:32:57.255Z,79.39
2018-07-28T09:33:57.220Z,76.97
2018-07-28T09:34:57.190Z,75.09
2018-07-28T09:35:57.151Z,74.41
2018-07-28T09:36:57.147Z,73.28
2018-07-28T09:37:57.108Z,75.26
2018-07-28T09:38:57.060Z,73.32
2018-07-28T09:39:57.030Z,71.66
2018-07-28T09:40:56.995Z,73.22
2018-07-28T09:41:56.959Z,73.28
2018-07-28T09:42:56.959Z,73.18
2018-07-28T09:43:56.906Z,71.76
2018-07-28T09:44:56.876Z,71.66
2018-07-28T09:45:56.849Z,69.52
2018-07-28T09:46:56.834Z,70.65
2018-07-28T09:47:56.804Z,70.62
2018-07-28T09:48:56.745Z,71.30
2018-07-28T09:49:56.776Z,72.60
2018-07-28T09:50:56.693Z,69.42
2018-07-28T09:51:56.663Z,67.12
2018-07-28T09:52:56.658Z,67.77
2018-07-28T09:53:56.628Z,69.94
2018-07-28T09:54:56.567Z,70.65
2018-07-28T09:55:56.539Z,71.89
2018-07-28T09:56:56.516Z,67.60
2018-07-28T09:57:56.493Z,66.63
2018-07-28T09:58:56.471Z,65.95
2018-07-28T09:59:56.420Z,69.56
2018-07-28T10:00:56.390Z,69.46
2018-07-28T10:01:56.376Z,66.89
2018-07-28T10:02:56.337Z,65.33
2018-07-28T10:03:56.368Z,68.06
2018-07-28T10:04:56.278Z,67.67
2018-07-28T10:05:56.249Z,66.31
2018-07-28T10:06:56.221Z,67.57
2018-07-28T10:07:56.264Z,66.50
2018-07-28T10:08:56.164Z,66.44
2018-07-28T10:09:56.147Z,68.68
2018-07-28T10:10:56.106Z,64.00
2018-07-28T10:11:56.089Z,64.97
2018-07-28T10:12:56.039Z,65.85
2018-07-28T10:13:56.010Z,66.11
2018-07-28T10:15:06.920Z,65.92
2018-07-28T10:15:55.958Z,68.26
2018-07-28T10:16:55.920Z,66.89
2018-07-28T10:17:55.908Z,67.28
2018-07-28T10:18:55.862Z,66.31
2018-07-28T10:19:55.857Z,64.65
2018-07-28T10:20:55.819Z,65.50
2018-07-28T10:21:55.782Z,67.05
2018-07-28T10:22:55.831Z,67.83
2018-07-28T10:23:55.719Z,68.77
2018-07-28T10:24:55.710Z,69.35
2018-07-28T10:25:55.655Z,69.55
2018-07-28T10:26:55.627Z,69.22
2018-07-28T10:27:55.600Z,69.81
2018-07-28T10:28:55.571Z,71.03
2018-07-28T10:29:55.536Z,70.45
2018-07-28T10:30:55.527Z,71.62
2018-07-28T10:31:55.473Z,70.16
2018-07-28T10:32:55.446Z,70.26
2018-07-28T10:33:55.417Z,70.55
2018-07-28T10:35:05.444Z,71.62
2018-07-28T10:35:55.371Z,70.45
2018-07-28T10:36:55.323Z,70.26
2018-07-28T10:37:55.283Z,70.39
2018-07-28T10:38:55.260Z,71.56
2018-07-28T10:39:55.242Z,71.07
2018-07-28T10:40:55.214Z,68.64
2018-07-28T10:41:55.176Z,68.44
2018-07-28T10:42:55.134Z,69.35
2018-07-28T10:43:55.104Z,66.83
2018-07-28T10:44:55.074Z,66.93
2018-07-28T10:45:55.042Z,66.76
2018-07-28T10:46:55.024Z,66.02
2018-07-28T10:47:54.970Z,66.63
2018-07-28T10:48:54.944Z,67.35
2018-07-28T10:49:54.909Z,65.69
2018-07-28T10:50:54.886Z,64.62
2018-07-28T10:51:54.913Z,62.89
2018-07-28T10:52:54.826Z,65.75
2018-07-28T10:53:54.795Z,63.57
2018-07-28T10:54:54.760Z,64.39
2018-07-28T10:55:54.735Z,61.06
2018-07-28T10:56:54.740Z,61.55
2018-07-28T10:57:54.721Z,60.28
2018-07-28T10:58:54.648Z,61.06
2018-07-28T10:59:54.620Z,61.35
2018-07-28T11:00:54.587Z,61.13
2018-07-28T11:01:54.572Z,61.13
2018-07-28T11:02:54.565Z,63.02
2018-07-28T11:03:54.517Z,62.92
2018-07-28T11:04:54.492Z,61.48
2018-07-28T11:05:54.461Z,61.74
2018-07-28T11:06:54.429Z,63.51
2018-07-28T11:07:54.425Z,60.06
2018-07-28T11:08:54.379Z,60.91
2018-07-28T11:09:54.356Z,61.95
2018-07-28T11:10:54.341Z,62.92
2018-07-28T11:11:54.310Z,62.85
2018-07-28T11:12:54.300Z,62.37
2018-07-28T11:13:54.247Z,65.56
2018-07-28T11:14:54.234Z,63.41
2018-07-28T11:15:54.206Z,63.60
2018-07-28T11:16:54.187Z,62.82
2018-07-28T11:17:54.187Z,62.89
2018-07-28T11:18:54.149Z,64.23
2018-07-28T11:19:54.099Z,64.06
2018-07-28T11:20:54.080Z,64.32
2018-07-28T11:21:54.052Z,65.59
2018-07-28T11:22:54.016Z,67.54
2018-07-28T11:23:54.010Z,65.82
2018-07-28T11:24:53.970Z,63.67
2018-07-28T11:25:53.957Z,65.63
2018-07-28T11:26:53.924Z,63.51
2018-07-28T11:27:53.927Z,65.88
2018-07-28T11:28:53.856Z,61.98
2018-07-28T11:29:53.827Z,61.69
2018-07-28T11:30:53.809Z,61.72
2018-07-28T11:31:53.800Z,61.07
2018-07-28T11:32:53.755Z,62.21
2018-07-28T11:33:53.753Z,62.02
2018-07-28T11:34:53.696Z,63.51
2018-07-28T11:35:53.673Z,62.15
2018-07-28T11:36:53.646Z,63.67
2018-07-28T11:37:53.671Z,62.99
2018-07-28T11:38:53.624Z,62.18
2018-07-28T11:39:53.571Z,61.99
2018-07-28T11:40:53.540Z,62.25
2018-07-28T11:41:53.514Z,62.44
2018-07-28T11:42:53.481Z,62.18
2018-07-28T11:43:53.480Z,62.50
2018-07-28T11:44:53.435Z,61.30
2018-07-28T11:45:53.466Z,63.06
2018-07-28T11:46:53.372Z,62.66
2018-07-28T11:47:53.344Z,63.71
2018-07-28T11:48:53.312Z,63.22
2018-07-28T11:49:53.317Z,63.51
2018-07-28T11:50:53.268Z,63.81
2018-07-28T11:51:53.240Z,64.20
2018-07-28T11:52:53.211Z,63.74
2018-07-28T11:53:53.210Z,62.47
2018-07-28T11:54:53.148Z,61.66
2018-07-28T11:55:53.118Z,62.73
2018-07-28T11:56:53.090Z,63.34
2018-07-28T11:57:53.062Z,61.40
2018-07-28T11:58:53.077Z,61.95
2018-07-28T11:59:53.018Z,62.95
2018-07-28T12:00:52.980Z,60.91
2018-07-28T12:01:52.956Z,61.00
2018-07-28T12:02:52.937Z,59.77
2018-07-28T12:03:52.919Z,62.01
2018-07-28T12:04:52.872Z,62.63
2018-07-28T12:05:52.854Z,61.62
2018-07-28T12:06:52.818Z,60.06
2018-07-28T12:07:52.785Z,60.84
2018-07-28T12:08:52.794Z,61.62
2018-07-28T12:09:52.737Z,58.91
2018-07-28T12:10:52.718Z,58.33
2018-07-28T12:11:52.695Z,57.45
2018-07-28T12:12:52.656Z,57.74
2018-07-28T12:13:52.635Z,58.84
2018-07-28T12:14:52.619Z,56.57
2018-07-28T12:15:52.575Z,57.32
2018-07-28T12:16:52.555Z,57.81
2018-07-28T12:17:52.524Z,57.20
2018-07-28T12:18:52.515Z,57.68
2018-07-28T12:19:52.465Z,57.49
2018-07-28T12:20:52.436Z,56.90
2018-07-28T12:21:52.412Z,57.32
2018-07-28T12:22:52.390Z,57.52
2018-07-28T12:23:52.431Z,57.59
2018-07-28T12:24:52.338Z,56.77
2018-07-28T12:25:52.308Z,57.65
2018-07-28T12:26:52.273Z,59.22
2018-07-28T12:27:52.245Z,58.14
2018-07-28T12:28:52.239Z,59.34
2018-07-28T12:29:52.189Z,58.34
2018-07-28T12:30:52.168Z,58.95
2018-07-28T12:31:52.146Z,59.64
2018-07-28T12:32:52.104Z,58.98
2018-07-28T12:33:52.101Z,58.59
2018-07-28T12:34:52.108Z,58.23
2018-07-28T12:35:52.040Z,59.43
2018-07-28T12:36:52.009Z,59.56
2018-07-28T12:37:51.973Z,57.48
2018-07-28T12:38:51.964Z,57.25
2018-07-28T12:39:51.914Z,57.77
2018-07-28T12:40:51.892Z,58.36
2018-07-28T12:41:51.863Z,59.63
2018-07-28T12:42:51.843Z,58.36
2018-07-28T12:43:51.848Z,57.57
2018-07-28T12:44:51.791Z,58.33
2018-07-28T12:45:51.759Z,58.91
2018-07-28T12:46:51.731Z,60.89
2018-07-28T12:47:51.706Z,60.14
2018-07-28T12:48:51.681Z,57.99
2018-07-28T12:49:51.679Z,57.50
2018-07-28T12:50:51.621Z,56.72
2018-07-28T12:51:51.600Z,55.22